This is the latest recevied weather packets stored in our database for station/object KO6MEX-13. If no packets are shown the sender has not sent any weather packets the latest 10 day(s).
| Time | Temp. | Humidity | Pressure | Rain* | Wind** | Luminosity | Snow |
|---|---|---|---|---|---|---|---|
| 1777587279 | 25° C | 48% | 1015.7 hPa | 0 mm | - | 633 W/m² | - |
| 1777586975 | 25° C | 46% | 1015.7 hPa | 0 mm | - | 641 W/m² | - |
| 1777586671 | 23.89° C | 49% | 1015.6 hPa | 0 mm | - | 638 W/m² | - |
| 1777586366 | 23.33° C | 49% | 1015.7 hPa | 0 mm | - | 629 W/m² | - |
| 1777586066 | 23.33° C | 50% | 1015.8 hPa | 0 mm | - | 655 W/m² | - |
| 1777585765 | 23.33° C | 52% | 1015.8 hPa | 0 mm | - | 653 W/m² | - |
| 1777585465 | 24.44° C | 48% | 1015.7 hPa | 0 mm | - | 655 W/m² | - |
| 1777585162 | 25° C | 47% | 1015.7 hPa | 0 mm | - | 649 W/m² | - |
| 1777584857 | 23.89° C | 52% | 1015.7 hPa | 0 mm | - | 664 W/m² | - |
| 1777584555 | 23.89° C | 50% | 1015.9 hPa | 0 mm | - | 654 W/m² | - |
| 1777584251 | 23.89° C | 48% | 1015.7 hPa | 0 mm | - | 646 W/m² | - |
| 1777583951 | 23.89° C | 50% | 1015.8 hPa | 0 mm | - | 660 W/m² | - |
| 1777583647 | 22.78° C | 53% | 1015.8 hPa | 0 mm | - | 668 W/m² | - |
| 1777583346 | 23.33° C | 50% | 1015.7 hPa | 0 mm | - | 662 W/m² | - |
| 1777583040 | 23.89° C | 48% | 1015.9 hPa | 0 mm | - | 644 W/m² | - |
| 1777582737 | 23.33° C | 51% | 1015.8 hPa | 0 mm | - | 661 W/m² | - |
| 1777582432 | 23.33° C | 53% | 1015.7 hPa | 0 mm | - | 665 W/m² | - |
| 1777582127 | 23.33° C | 51% | 1015.8 hPa | 0 mm | - | 672 W/m² | - |
| 1777581826 | 23.33° C | 51% | 1015.7 hPa | 0 mm | - | 669 W/m² | - |
| 1777581525 | 23.33° C | 50% | 1015.6 hPa | 0 mm | - | 685 W/m² | - |
| 1777581221 | 23.89° C | 48% | 1015.8 hPa | 0 mm | - | 685 W/m² | - |
| 1777580921 | 25.56° C | 47% | 1016 hPa | 0 mm | - | 680 W/m² | - |
| 1777580615 | 25.56° C | 45% | 1015.8 hPa | 0 mm | - | 688 W/m² | - |
| 1777580312 | 25° C | 47% | 1015.8 hPa | 0 mm | - | 675 W/m² | - |
| 1777580008 | 25.56° C | 44% | 1015.8 hPa | 0 mm | - | 642 W/m² | - |
* Rain latest hour (hover to see other rain measurements)
** Current wind speed in m/s (hover to see current wind gust speed)